sensor_id;sensor_type;location;lat;lon;timestamp;P1;durP1;ratioP1;P2;durP2;ratioP2
46651;SDS011;32377;52.182;5.398;2023-11-19T00:01:08;30.58;;;8.57;;
46651;SDS011;32377;52.182;5.398;2023-11-19T00:03:33;33.08;;;8.10;;
46651;SDS011;32377;52.182;5.398;2023-11-19T00:06:00;34.17;;;7.90;;
46651;SDS011;32377;52.182;5.398;2023-11-19T00:08:26;22.15;;;7.55;;
46651;SDS011;32377;52.182;5.398;2023-11-19T00:10:52;38.15;;;6.78;;
46651;SDS011;32377;52.182;5.398;2023-11-19T00:13:17;32.95;;;7.85;;
46651;SDS011;32377;52.182;5.398;2023-11-19T00:15:43;38.53;;;7.38;;
46651;SDS011;32377;52.182;5.398;2023-11-19T00:18:10;23.35;;;6.63;;
46651;SDS011;32377;52.182;5.398;2023-11-19T00:20:36;33.70;;;6.53;;
46651;SDS011;32377;52.182;5.398;2023-11-19T00:23:01;30.05;;;6.70;;
46651;SDS011;32377;52.182;5.398;2023-11-19T00:25:27;24.17;;;6.20;;
46651;SDS011;32377;52.182;5.398;2023-11-19T00:27:53;40.72;;;7.90;;
46651;SDS011;32377;52.182;5.398;2023-11-19T00:30:19;24.70;;;6.90;;
46651;SDS011;32377;52.182;5.398;2023-11-19T00:32:44;26.35;;;6.00;;
46651;SDS011;32377;52.182;5.398;2023-11-19T00:35:10;31.15;;;6.00;;
46651;SDS011;32377;52.182;5.398;2023-11-19T00:37:36;33.03;;;6.68;;
46651;SDS011;32377;52.182;5.398;2023-11-19T00:40:02;23.25;;;5.80;;
46651;SDS011;32377;52.182;5.398;2023-11-19T00:42:31;27.05;;;6.47;;
46651;SDS011;32377;52.182;5.398;2023-11-19T00:44:56;34.70;;;6.57;;
46651;SDS011;32377;52.182;5.398;2023-11-19T00:47:23;40.78;;;7.15;;
46651;SDS011;32377;52.182;5.398;2023-11-19T00:49:48;34.08;;;6.47;;
46651;SDS011;32377;52.182;5.398;2023-11-19T00:52:15;36.28;;;6.03;;
46651;SDS011;32377;52.182;5.398;2023-11-19T00:54:41;33.22;;;6.22;;
46651;SDS011;32377;52.182;5.398;2023-11-19T00:57:07;40.20;;;7.43;;
46651;SDS011;32377;52.182;5.398;2023-11-19T00:59:33;37.53;;;6.57;;
46651;SDS011;32377;52.182;5.398;2023-11-19T01:01:58;38.13;;;6.45;;
46651;SDS011;32377;52.182;5.398;2023-11-19T01:04:28;44.47;;;7.70;;
46651;SDS011;32377;52.182;5.398;2023-11-19T01:07:03;41.90;;;7.22;;
46651;SDS011;32377;52.182;5.398;2023-11-19T01:09:30;34.88;;;5.97;;
46651;SDS011;32377;52.182;5.398;2023-11-19T01:11:57;31.13;;;6.93;;
46651;SDS011;32377;52.182;5.398;2023-11-19T01:14:25;45.63;;;7.38;;
46651;SDS011;32377;52.182;5.398;2023-11-19T01:16:51;43.65;;;6.82;;
46651;SDS011;32377;52.182;5.398;2023-11-19T01:19:18;38.60;;;6.90;;
46651;SDS011;32377;52.182;5.398;2023-11-19T01:21:44;34.15;;;6.03;;
46651;SDS011;32377;52.182;5.398;2023-11-19T01:24:10;48.10;;;7.28;;
46651;SDS011;32377;52.182;5.398;2023-11-19T01:26:38;40.60;;;6.97;;
46651;SDS011;32377;52.182;5.398;2023-11-19T01:29:03;35.83;;;6.55;;
46651;SDS011;32377;52.182;5.398;2023-11-19T01:31:29;44.92;;;6.80;;
46651;SDS011;32377;52.182;5.398;2023-11-19T01:33:57;48.28;;;6.95;;
46651;SDS011;32377;52.182;5.398;2023-11-19T01:36:22;48.67;;;7.00;;
46651;SDS011;32377;52.182;5.398;2023-11-19T01:38:48;50.38;;;7.68;;
46651;SDS011;32377;52.182;5.398;2023-11-19T01:41:15;48.78;;;8.27;;
46651;SDS011;32377;52.182;5.398;2023-11-19T01:43:40;45.35;;;7.93;;
46651;SDS011;32377;52.182;5.398;2023-11-19T01:46:06;57.10;;;8.20;;
46651;SDS011;32377;52.182;5.398;2023-11-19T01:48:34;50.45;;;7.55;;
46651;SDS011;32377;52.182;5.398;2023-11-19T01:51:01;52.92;;;8.32;;
46651;SDS011;32377;52.182;5.398;2023-11-19T01:53:28;58.65;;;7.85;;
46651;SDS011;32377;52.182;5.398;2023-11-19T01:55:55;45.17;;;7.90;;
46651;SDS011;32377;52.182;5.398;2023-11-19T01:58:21;52.17;;;7.78;;
46651;SDS011;32377;52.182;5.398;2023-11-19T02:00:48;64.50;;;8.40;;
46651;SDS011;32377;52.182;5.398;2023-11-19T02:03:14;42.90;;;7.68;;
46651;SDS011;32377;52.182;5.398;2023-11-19T02:05:40;52.33;;;7.97;;
46651;SDS011;32377;52.182;5.398;2023-11-19T02:08:06;50.60;;;8.05;;
46651;SDS011;32377;52.182;5.398;2023-11-19T02:10:33;49.20;;;8.15;;
46651;SDS011;32377;52.182;5.398;2023-11-19T02:12:58;55.58;;;8.32;;
46651;SDS011;32377;52.182;5.398;2023-11-19T02:15:25;56.05;;;8.00;;
46651;SDS011;32377;52.182;5.398;2023-11-19T02:17:51;44.45;;;7.38;;
46651;SDS011;32377;52.182;5.398;2023-11-19T02:20:17;48.42;;;7.55;;
46651;SDS011;32377;52.182;5.398;2023-11-19T02:22:45;55.40;;;8.45;;
46651;SDS011;32377;52.182;5.398;2023-11-19T02:25:29;55.88;;;8.00;;
46651;SDS011;32377;52.182;5.398;2023-11-19T02:28:01;51.72;;;8.07;;
46651;SDS011;32377;52.182;5.398;2023-11-19T02:30:27;53.65;;;8.77;;
46651;SDS011;32377;52.182;5.398;2023-11-19T02:32:56;55.05;;;8.10;;
46651;SDS011;32377;52.182;5.398;2023-11-19T02:35:23;56.55;;;8.52;;
46651;SDS011;32377;52.182;5.398;2023-11-19T02:37:49;57.70;;;8.80;;
46651;SDS011;32377;52.182;5.398;2023-11-19T02:40:15;57.40;;;8.57;;
46651;SDS011;32377;52.182;5.398;2023-11-19T02:42:40;60.55;;;9.18;;
46651;SDS011;32377;52.182;5.398;2023-11-19T02:45:06;52.13;;;7.43;;
46651;SDS011;32377;52.182;5.398;2023-11-19T02:47:33;63.13;;;9.13;;
46651;SDS011;32377;52.182;5.398;2023-11-19T02:49:59;60.95;;;9.48;;
46651;SDS011;32377;52.182;5.398;2023-11-19T02:52:25;62.20;;;10.15;;
46651;SDS011;32377;52.182;5.398;2023-11-19T02:54:51;60.75;;;9.52;;
46651;SDS011;32377;52.182;5.398;2023-11-19T02:57:16;60.35;;;9.18;;
46651;SDS011;32377;52.182;5.398;2023-11-19T02:59:44;56.83;;;8.82;;
46651;SDS011;32377;52.182;5.398;2023-11-19T03:02:10;60.67;;;8.90;;
46651;SDS011;32377;52.182;5.398;2023-11-19T03:04:37;64.72;;;9.52;;
46651;SDS011;32377;52.182;5.398;2023-11-19T03:07:07;73.40;;;10.63;;
46651;SDS011;32377;52.182;5.398;2023-11-19T03:09:33;78.50;;;11.02;;
46651;SDS011;32377;52.182;5.398;2023-11-19T03:12:00;69.18;;;10.15;;
46651;SDS011;32377;52.182;5.398;2023-11-19T03:14:26;64.82;;;9.90;;
46651;SDS011;32377;52.182;5.398;2023-11-19T03:16:51;61.42;;;8.88;;
46651;SDS011;32377;52.182;5.398;2023-11-19T03:19:17;70.35;;;10.10;;
46651;SDS011;32377;52.182;5.398;2023-11-19T03:21:42;76.53;;;10.82;;
46651;SDS011;32377;52.182;5.398;2023-11-19T03:24:09;60.00;;;9.63;;
46651;SDS011;32377;52.182;5.398;2023-11-19T03:26:35;58.53;;;9.48;;
46651;SDS011;32377;52.182;5.398;2023-11-19T03:29:02;63.92;;;9.15;;
46651;SDS011;32377;52.182;5.398;2023-11-19T03:31:27;65.20;;;9.15;;
46651;SDS011;32377;52.182;5.398;2023-11-19T03:33:53;70.28;;;9.48;;
46651;SDS011;32377;52.182;5.398;2023-11-19T03:36:19;72.97;;;10.90;;
46651;SDS011;32377;52.182;5.398;2023-11-19T03:38:45;77.15;;;11.20;;
46651;SDS011;32377;52.182;5.398;2023-11-19T03:41:14;69.30;;;9.60;;
46651;SDS011;32377;52.182;5.398;2023-11-19T03:43:41;76.30;;;10.77;;
46651;SDS011;32377;52.182;5.398;2023-11-19T03:46:19;62.95;;;9.55;;
46651;SDS011;32377;52.182;5.398;2023-11-19T03:48:48;70.38;;;10.45;;
46651;SDS011;32377;52.182;5.398;2023-11-19T03:51:15;63.40;;;9.63;;
46651;SDS011;32377;52.182;5.398;2023-11-19T03:53:50;67.63;;;9.85;;
46651;SDS011;32377;52.182;5.398;2023-11-19T03:56:15;65.05;;;9.70;;
46651;SDS011;32377;52.182;5.398;2023-11-19T03:58:41;62.65;;;9.98;;
46651;SDS011;32377;52.182;5.398;2023-11-19T04:01:11;69.97;;;9.32;;
46651;SDS011;32377;52.182;5.398;2023-11-19T04:03:40;60.72;;;9.85;;
46651;SDS011;32377;52.182;5.398;2023-11-19T04:06:06;67.45;;;9.63;;
46651;SDS011;32377;52.182;5.398;2023-11-19T04:08:32;64.07;;;8.30;;
46651;SDS011;32377;52.182;5.398;2023-11-19T04:10:57;60.53;;;8.80;;
46651;SDS011;32377;52.182;5.398;2023-11-19T04:13:23;66.97;;;8.98;;
46651;SDS011;32377;52.182;5.398;2023-11-19T04:15:49;76.90;;;10.57;;
46651;SDS011;32377;52.182;5.398;2023-11-19T04:18:15;63.97;;;9.52;;
46651;SDS011;32377;52.182;5.398;2023-11-19T04:20:41;75.97;;;10.75;;
46651;SDS011;32377;52.182;5.398;2023-11-19T04:23:07;69.47;;;9.77;;
46651;SDS011;32377;52.182;5.398;2023-11-19T04:25:34;70.15;;;10.40;;
46651;SDS011;32377;52.182;5.398;2023-11-19T04:28:00;54.55;;;8.93;;
46651;SDS011;32377;52.182;5.398;2023-11-19T04:30:27;63.30;;;8.52;;
46651;SDS011;32377;52.182;5.398;2023-11-19T04:32:53;65.05;;;10.27;;
46651;SDS011;32377;52.182;5.398;2023-11-19T04:35:18;71.68;;;10.82;;
46651;SDS011;32377;52.182;5.398;2023-11-19T04:37:44;77.85;;;12.50;;
46651;SDS011;32377;52.182;5.398;2023-11-19T04:40:10;77.00;;;12.20;;
46651;SDS011;32377;52.182;5.398;2023-11-19T04:42:37;71.80;;;10.25;;
46651;SDS011;32377;52.182;5.398;2023-11-19T04:45:05;68.43;;;10.10;;
46651;SDS011;32377;52.182;5.398;2023-11-19T04:47:32;57.75;;;9.52;;
46651;SDS011;32377;52.182;5.398;2023-11-19T04:49:58;79.28;;;11.75;;
46651;SDS011;32377;52.182;5.398;2023-11-19T04:52:24;78.90;;;11.68;;
46651;SDS011;32377;52.182;5.398;2023-11-19T04:54:49;72.10;;;9.90;;
46651;SDS011;32377;52.182;5.398;2023-11-19T04:57:15;63.92;;;9.32;;
46651;SDS011;32377;52.182;5.398;2023-11-19T04:59:41;71.75;;;10.75;;
46651;SDS011;32377;52.182;5.398;2023-11-19T05:02:06;79.32;;;10.88;;
46651;SDS011;32377;52.182;5.398;2023-11-19T05:04:33;77.95;;;11.50;;
46651;SDS011;32377;52.182;5.398;2023-11-19T05:06:59;68.53;;;9.88;;
46651;SDS011;32377;52.182;5.398;2023-11-19T05:09:24;68.10;;;10.98;;
46651;SDS011;32377;52.182;5.398;2023-11-19T05:11:50;69.63;;;9.35;;
46651;SDS011;32377;52.182;5.398;2023-11-19T05:14:16;75.00;;;9.73;;
46651;SDS011;32377;52.182;5.398;2023-11-19T05:16:41;80.07;;;10.60;;
46651;SDS011;32377;52.182;5.398;2023-11-19T05:19:08;57.10;;;9.05;;
46651;SDS011;32377;52.182;5.398;2023-11-19T05:21:34;69.22;;;10.95;;
46651;SDS011;32377;52.182;5.398;2023-11-19T05:24:01;76.43;;;11.43;;
46651;SDS011;32377;52.182;5.398;2023-11-19T05:26:29;71.10;;;10.15;;
46651;SDS011;32377;52.182;5.398;2023-11-19T05:28:55;73.32;;;9.90;;
46651;SDS011;32377;52.182;5.398;2023-11-19T05:31:21;63.50;;;10.27;;
46651;SDS011;32377;52.182;5.398;2023-11-19T05:33:47;74.15;;;11.02;;
46651;SDS011;32377;52.182;5.398;2023-11-19T05:36:12;67.80;;;9.75;;
46651;SDS011;32377;52.182;5.398;2023-11-19T05:38:38;68.68;;;11.98;;
46651;SDS011;32377;52.182;5.398;2023-11-19T05:41:04;54.80;;;8.40;;
46651;SDS011;32377;52.182;5.398;2023-11-19T05:43:30;58.25;;;10.20;;
46651;SDS011;32377;52.182;5.398;2023-11-19T05:45:56;70.55;;;10.90;;
46651;SDS011;32377;52.182;5.398;2023-11-19T05:48:22;70.22;;;10.93;;
46651;SDS011;32377;52.182;5.398;2023-11-19T05:50:48;73.53;;;11.23;;
46651;SDS011;32377;52.182;5.398;2023-11-19T05:53:15;65.53;;;9.15;;
46651;SDS011;32377;52.182;5.398;2023-11-19T05:55:41;68.75;;;11.15;;
46651;SDS011;32377;52.182;5.398;2023-11-19T05:58:13;58.47;;;8.07;;
46651;SDS011;32377;52.182;5.398;2023-11-19T06:00:39;70.00;;;9.40;;
46651;SDS011;32377;52.182;5.398;2023-11-19T06:03:05;52.67;;;8.85;;
46651;SDS011;32377;52.182;5.398;2023-11-19T06:05:32;61.72;;;9.40;;
46651;SDS011;32377;52.182;5.398;2023-11-19T06:07:58;60.28;;;8.88;;
46651;SDS011;32377;52.182;5.398;2023-11-19T06:10:23;61.63;;;9.13;;
46651;SDS011;32377;52.182;5.398;2023-11-19T06:12:57;66.03;;;9.68;;
46651;SDS011;32377;52.182;5.398;2023-11-19T06:15:24;68.07;;;9.17;;
46651;SDS011;32377;52.182;5.398;2023-11-19T06:17:51;61.63;;;11.63;;
46651;SDS011;32377;52.182;5.398;2023-11-19T06:20:17;61.20;;;8.32;;
46651;SDS011;32377;52.182;5.398;2023-11-19T06:22:44;62.78;;;9.65;;
46651;SDS011;32377;52.182;5.398;2023-11-19T06:25:10;59.83;;;9.07;;
46651;SDS011;32377;52.182;5.398;2023-11-19T06:27:36;59.08;;;9.13;;
46651;SDS011;32377;52.182;5.398;2023-11-19T06:30:02;63.20;;;11.13;;
46651;SDS011;32377;52.182;5.398;2023-11-19T06:32:28;68.53;;;8.50;;
46651;SDS011;32377;52.182;5.398;2023-11-19T06:34:53;76.35;;;9.90;;
46651;SDS011;32377;52.182;5.398;2023-11-19T06:37:19;59.63;;;9.20;;
46651;SDS011;32377;52.182;5.398;2023-11-19T06:39:45;69.97;;;10.70;;
46651;SDS011;32377;52.182;5.398;2023-11-19T06:42:11;60.25;;;8.15;;
46651;SDS011;32377;52.182;5.398;2023-11-19T06:44:36;71.15;;;9.95;;
46651;SDS011;32377;52.182;5.398;2023-11-19T06:47:02;65.15;;;9.18;;
46651;SDS011;32377;52.182;5.398;2023-11-19T06:49:28;62.67;;;7.93;;
46651;SDS011;32377;52.182;5.398;2023-11-19T06:51:53;63.78;;;9.20;;
46651;SDS011;32377;52.182;5.398;2023-11-19T06:54:19;81.78;;;9.60;;
46651;SDS011;32377;52.182;5.398;2023-11-19T06:56:44;61.53;;;8.68;;
46651;SDS011;32377;52.182;5.398;2023-11-19T06:59:10;64.32;;;9.77;;
46651;SDS011;32377;52.182;5.398;2023-11-19T07:01:38;65.03;;;10.40;;
46651;SDS011;32377;52.182;5.398;2023-11-19T07:04:04;57.17;;;8.57;;
46651;SDS011;32377;52.182;5.398;2023-11-19T07:06:34;83.25;;;9.65;;
46651;SDS011;32377;52.182;5.398;2023-11-19T07:09:01;52.78;;;8.18;;
46651;SDS011;32377;52.182;5.398;2023-11-19T07:11:40;55.10;;;8.48;;
46651;SDS011;32377;52.182;5.398;2023-11-19T07:14:19;53.75;;;7.85;;
46651;SDS011;32377;52.182;5.398;2023-11-19T07:16:46;61.30;;;8.88;;
46651;SDS011;32377;52.182;5.398;2023-11-19T07:19:11;65.57;;;8.82;;
46651;SDS011;32377;52.182;5.398;2023-11-19T07:21:37;64.28;;;9.50;;
46651;SDS011;32377;52.182;5.398;2023-11-19T07:24:08;54.70;;;9.70;;
46651;SDS011;32377;52.182;5.398;2023-11-19T07:26:34;57.70;;;9.43;;
46651;SDS011;32377;52.182;5.398;2023-11-19T07:29:00;49.80;;;8.02;;
46651;SDS011;32377;52.182;5.398;2023-11-19T07:31:26;69.32;;;9.05;;
46651;SDS011;32377;52.182;5.398;2023-11-19T07:33:52;73.68;;;10.27;;
46651;SDS011;32377;52.182;5.398;2023-11-19T07:36:18;61.40;;;8.80;;
46651;SDS011;32377;52.182;5.398;2023-11-19T07:38:45;54.55;;;7.50;;
46651;SDS011;32377;52.182;5.398;2023-11-19T07:41:10;56.00;;;8.73;;
46651;SDS011;32377;52.182;5.398;2023-11-19T07:43:39;72.47;;;9.45;;
46651;SDS011;32377;52.182;5.398;2023-11-19T07:46:05;64.15;;;9.27;;
46651;SDS011;32377;52.182;5.398;2023-11-19T07:48:34;57.58;;;9.20;;
46651;SDS011;32377;52.182;5.398;2023-11-19T07:51:01;61.13;;;9.68;;
46651;SDS011;32377;52.182;5.398;2023-11-19T07:53:26;65.68;;;8.88;;
46651;SDS011;32377;52.182;5.398;2023-11-19T07:55:53;67.68;;;9.27;;
46651;SDS011;32377;52.182;5.398;2023-11-19T07:58:18;53.35;;;8.02;;
46651;SDS011;32377;52.182;5.398;2023-11-19T08:00:44;60.13;;;9.35;;
46651;SDS011;32377;52.182;5.398;2023-11-19T08:03:10;60.05;;;9.82;;
46651;SDS011;32377;52.182;5.398;2023-11-19T08:05:36;64.28;;;9.55;;
46651;SDS011;32377;52.182;5.398;2023-11-19T08:08:01;55.53;;;9.85;;
46651;SDS011;32377;52.182;5.398;2023-11-19T08:10:27;60.63;;;8.68;;
46651;SDS011;32377;52.182;5.398;2023-11-19T08:12:53;58.75;;;9.13;;
46651;SDS011;32377;52.182;5.398;2023-11-19T08:15:19;57.63;;;10.18;;
46651;SDS011;32377;52.182;5.398;2023-11-19T08:17:44;63.85;;;9.45;;
46651;SDS011;32377;52.182;5.398;2023-11-19T08:20:10;50.40;;;9.38;;
46651;SDS011;32377;52.182;5.398;2023-11-19T08:22:36;55.42;;;7.90;;
46651;SDS011;32377;52.182;5.398;2023-11-19T08:25:04;58.83;;;9.30;;
46651;SDS011;32377;52.182;5.398;2023-11-19T08:27:30;57.17;;;8.68;;
46651;SDS011;32377;52.182;5.398;2023-11-19T08:29:56;57.80;;;8.80;;
46651;SDS011;32377;52.182;5.398;2023-11-19T08:32:22;74.47;;;8.43;;
46651;SDS011;32377;52.182;5.398;2023-11-19T08:34:51;66.80;;;10.18;;
46651;SDS011;32377;52.182;5.398;2023-11-19T08:37:17;62.90;;;9.98;;
46651;SDS011;32377;52.182;5.398;2023-11-19T08:39:45;58.65;;;8.68;;
46651;SDS011;32377;52.182;5.398;2023-11-19T08:42:15;56.00;;;9.07;;
46651;SDS011;32377;52.182;5.398;2023-11-19T08:44:41;49.40;;;8.48;;
46651;SDS011;32377;52.182;5.398;2023-11-19T08:47:12;48.70;;;9.10;;
46651;SDS011;32377;52.182;5.398;2023-11-19T08:49:39;57.55;;;9.25;;
46651;SDS011;32377;52.182;5.398;2023-11-19T08:52:04;53.40;;;9.63;;
46651;SDS011;32377;52.182;5.398;2023-11-19T08:54:33;52.33;;;8.95;;
46651;SDS011;32377;52.182;5.398;2023-11-19T08:56:59;61.85;;;11.02;;
46651;SDS011;32377;52.182;5.398;2023-11-19T08:59:25;58.95;;;9.57;;
46651;SDS011;32377;52.182;5.398;2023-11-19T09:01:51;51.45;;;9.20;;
46651;SDS011;32377;52.182;5.398;2023-11-19T09:04:16;56.53;;;9.10;;
46651;SDS011;32377;52.182;5.398;2023-11-19T09:06:42;66.90;;;10.00;;
46651;SDS011;32377;52.182;5.398;2023-11-19T09:09:08;70.80;;;10.05;;
46651;SDS011;32377;52.182;5.398;2023-11-19T09:11:34;57.90;;;7.78;;
46651;SDS011;32377;52.182;5.398;2023-11-19T09:14:00;62.95;;;8.95;;
46651;SDS011;32377;52.182;5.398;2023-11-19T09:16:25;58.65;;;10.02;;
46651;SDS011;32377;52.182;5.398;2023-11-19T09:18:51;49.03;;;7.70;;
46651;SDS011;32377;52.182;5.398;2023-11-19T09:21:16;66.82;;;9.45;;
46651;SDS011;32377;52.182;5.398;2023-11-19T09:23:42;52.80;;;8.77;;
46651;SDS011;32377;52.182;5.398;2023-11-19T09:26:08;55.63;;;7.75;;
46651;SDS011;32377;52.182;5.398;2023-11-19T09:28:37;60.08;;;8.25;;
46651;SDS011;32377;52.182;5.398;2023-11-19T09:31:12;54.05;;;7.80;;
46651;SDS011;32377;52.182;5.398;2023-11-19T09:33:38;56.85;;;8.60;;
46651;SDS011;32377;52.182;5.398;2023-11-19T09:36:04;51.78;;;7.78;;
46651;SDS011;32377;52.182;5.398;2023-11-19T09:38:30;51.40;;;7.80;;
46651;SDS011;32377;52.182;5.398;2023-11-19T09:40:55;61.78;;;9.55;;
46651;SDS011;32377;52.182;5.398;2023-11-19T09:43:23;48.63;;;7.97;;
46651;SDS011;32377;52.182;5.398;2023-11-19T09:45:49;52.58;;;8.38;;
46651;SDS011;32377;52.182;5.398;2023-11-19T09:48:19;63.63;;;8.77;;
46651;SDS011;32377;52.182;5.398;2023-11-19T09:50:48;52.17;;;8.15;;
46651;SDS011;32377;52.182;5.398;2023-11-19T09:53:14;44.22;;;7.72;;
46651;SDS011;32377;52.182;5.398;2023-11-19T09:55:40;55.17;;;7.85;;
46651;SDS011;32377;52.182;5.398;2023-11-19T09:58:06;49.03;;;7.90;;
46651;SDS011;32377;52.182;5.398;2023-11-19T10:00:33;42.90;;;8.02;;
46651;SDS011;32377;52.182;5.398;2023-11-19T10:02:59;44.33;;;7.97;;
46651;SDS011;32377;52.182;5.398;2023-11-19T10:05:25;52.35;;;7.90;;
46651;SDS011;32377;52.182;5.398;2023-11-19T10:07:51;54.42;;;8.00;;
46651;SDS011;32377;52.182;5.398;2023-11-19T10:10:17;57.83;;;9.35;;
46651;SDS011;32377;52.182;5.398;2023-11-19T10:12:47;57.58;;;9.32;;
46651;SDS011;32377;52.182;5.398;2023-11-19T10:15:24;57.88;;;9.68;;
46651;SDS011;32377;52.182;5.398;2023-11-19T10:17:51;44.05;;;7.95;;
46651;SDS011;32377;52.182;5.398;2023-11-19T10:20:21;41.10;;;7.20;;
46651;SDS011;32377;52.182;5.398;2023-11-19T10:22:47;54.63;;;7.88;;
46651;SDS011;32377;52.182;5.398;2023-11-19T10:25:25;52.17;;;7.45;;
46651;SDS011;32377;52.182;5.398;2023-11-19T10:27:52;53.97;;;8.32;;
46651;SDS011;32377;52.182;5.398;2023-11-19T10:30:24;47.00;;;7.20;;
46651;SDS011;32377;52.182;5.398;2023-11-19T10:33:03;44.20;;;6.97;;
46651;SDS011;32377;52.182;5.398;2023-11-19T10:36:15;40.35;;;7.38;;
46651;SDS011;32377;52.182;5.398;2023-11-19T10:38:23;44.28;;;8.20;;
46651;SDS011;32377;52.182;5.398;2023-11-19T10:40:50;41.83;;;7.57;;
46651;SDS011;32377;52.182;5.398;2023-11-19T10:43:19;50.35;;;8.18;;
46651;SDS011;32377;52.182;5.398;2023-11-19T10:45:47;42.55;;;7.60;;
46651;SDS011;32377;52.182;5.398;2023-11-19T10:48:12;46.08;;;7.40;;
46651;SDS011;32377;52.182;5.398;2023-11-19T10:50:39;39.50;;;8.43;;
46651;SDS011;32377;52.182;5.398;2023-11-19T10:53:06;41.33;;;8.00;;
46651;SDS011;32377;52.182;5.398;2023-11-19T10:55:34;42.03;;;7.90;;
46651;SDS011;32377;52.182;5.398;2023-11-19T10:58:02;45.92;;;7.60;;
46651;SDS011;32377;52.182;5.398;2023-11-19T11:00:30;45.22;;;8.43;;
46651;SDS011;32377;52.182;5.398;2023-11-19T11:03:19;46.67;;;7.30;;
46651;SDS011;32377;52.182;5.398;2023-11-19T11:05:47;39.00;;;7.28;;
46651;SDS011;32377;52.182;5.398;2023-11-19T11:08:14;39.30;;;6.78;;
46651;SDS011;32377;52.182;5.398;2023-11-19T11:10:44;39.63;;;7.18;;
46651;SDS011;32377;52.182;5.398;2023-11-19T11:13:17;40.45;;;6.70;;
46651;SDS011;32377;52.182;5.398;2023-11-19T11:15:44;50.17;;;8.52;;
46651;SDS011;32377;52.182;5.398;2023-11-19T11:18:11;37.95;;;6.68;;
46651;SDS011;32377;52.182;5.398;2023-11-19T11:20:38;40.08;;;7.50;;
46651;SDS011;32377;52.182;5.398;2023-11-19T11:23:25;43.17;;;7.03;;
46651;SDS011;32377;52.182;5.398;2023-11-19T11:37:39;40.33;;;6.20;;
46651;SDS011;32377;52.182;5.398;2023-11-19T11:40:28;38.65;;;7.40;;
46651;SDS011;32377;52.182;5.398;2023-11-19T11:42:53;30.38;;;6.28;;
46651;SDS011;32377;52.182;5.398;2023-11-19T11:45:19;38.22;;;6.25;;
46651;SDS011;32377;52.182;5.398;2023-11-19T11:48:07;45.28;;;6.47;;
46651;SDS011;32377;52.182;5.398;2023-11-19T11:50:50;42.97;;;7.22;;
46651;SDS011;32377;52.182;5.398;2023-11-19T11:53:21;38.95;;;6.22;;
46651;SDS011;32377;52.182;5.398;2023-11-19T11:58:17;42.28;;;6.68;;
46651;SDS011;32377;52.182;5.398;2023-11-19T12:00:47;46.20;;;9.95;;
46651;SDS011;32377;52.182;5.398;2023-11-19T12:03:13;37.58;;;7.47;;
46651;SDS011;32377;52.182;5.398;2023-11-19T12:05:44;41.15;;;7.55;;
46651;SDS011;32377;52.182;5.398;2023-11-19T12:08:10;43.72;;;6.35;;
46651;SDS011;32377;52.182;5.398;2023-11-19T12:10:44;38.20;;;6.93;;
46651;SDS011;32377;52.182;5.398;2023-11-19T12:18:21;41.13;;;7.63;;
46651;SDS011;32377;52.182;5.398;2023-11-19T12:20:48;48.67;;;7.45;;
46651;SDS011;32377;52.182;5.398;2023-11-19T12:23:14;49.22;;;7.95;;
46651;SDS011;32377;52.182;5.398;2023-11-19T12:25:40;41.70;;;5.93;;
46651;SDS011;32377;52.182;5.398;2023-11-19T12:28:11;34.78;;;6.13;;
46651;SDS011;32377;52.182;5.398;2023-11-19T12:30:38;35.95;;;6.03;;
46651;SDS011;32377;52.182;5.398;2023-11-19T12:33:10;39.28;;;7.13;;
46651;SDS011;32377;52.182;5.398;2023-11-19T12:35:40;35.60;;;6.60;;
46651;SDS011;32377;52.182;5.398;2023-11-19T12:38:07;35.65;;;6.88;;
46651;SDS011;32377;52.182;5.398;2023-11-19T12:40:33;39.03;;;7.10;;
46651;SDS011;32377;52.182;5.398;2023-11-19T12:42:59;35.75;;;7.10;;
46651;SDS011;32377;52.182;5.398;2023-11-19T12:45:27;37.42;;;6.68;;
46651;SDS011;32377;52.182;5.398;2023-11-19T12:53:23;44.08;;;7.25;;
46651;SDS011;32377;52.182;5.398;2023-11-19T12:55:50;38.50;;;6.60;;
46651;SDS011;32377;52.182;5.398;2023-11-19T12:58:35;40.45;;;6.75;;
46651;SDS011;32377;52.182;5.398;2023-11-19T13:01:05;29.08;;;5.90;;
46651;SDS011;32377;52.182;5.398;2023-11-19T13:03:32;33.45;;;5.55;;
46651;SDS011;32377;52.182;5.398;2023-11-19T13:06:02;37.72;;;5.85;;
46651;SDS011;32377;52.182;5.398;2023-11-19T13:08:36;27.55;;;5.22;;
46651;SDS011;32377;52.182;5.398;2023-11-19T13:11:05;34.20;;;5.60;;
46651;SDS011;32377;52.182;5.398;2023-11-19T13:13:33;40.35;;;6.00;;
46651;SDS011;32377;52.182;5.398;2023-11-19T13:18:44;34.47;;;5.85;;
46651;SDS011;32377;52.182;5.398;2023-11-19T13:21:09;30.35;;;4.63;;
46651;SDS011;32377;52.182;5.398;2023-11-19T13:23:35;36.08;;;5.38;;
46651;SDS011;32377;52.182;5.398;2023-11-19T13:26:01;38.08;;;5.90;;
46651;SDS011;32377;52.182;5.398;2023-11-19T13:28:26;27.50;;;4.75;;
46651;SDS011;32377;52.182;5.398;2023-11-19T13:30:52;33.60;;;5.82;;
46651;SDS011;32377;52.182;5.398;2023-11-19T13:33:18;28.33;;;6.18;;
46651;SDS011;32377;52.182;5.398;2023-11-19T13:35:44;41.00;;;6.03;;
46651;SDS011;32377;52.182;5.398;2023-11-19T13:38:09;47.55;;;5.53;;
46651;SDS011;32377;52.182;5.398;2023-11-19T13:40:35;33.88;;;5.32;;
46651;SDS011;32377;52.182;5.398;2023-11-19T13:43:01;44.08;;;7.78;;
46651;SDS011;32377;52.182;5.398;2023-11-19T13:45:26;37.70;;;6.85;;
46651;SDS011;32377;52.182;5.398;2023-11-19T13:47:52;40.38;;;6.05;;
46651;SDS011;32377;52.182;5.398;2023-11-19T13:50:18;45.83;;;7.60;;
46651;SDS011;32377;52.182;5.398;2023-11-19T13:52:44;41.20;;;5.95;;
46651;SDS011;32377;52.182;5.398;2023-11-19T13:55:11;41.55;;;6.93;;
46651;SDS011;32377;52.182;5.398;2023-11-19T13:57:40;40.78;;;7.75;;
46651;SDS011;32377;52.182;5.398;2023-11-19T14:00:10;43.22;;;6.47;;
46651;SDS011;32377;52.182;5.398;2023-11-19T14:02:44;53.38;;;7.80;;
46651;SDS011;32377;52.182;5.398;2023-11-19T14:05:12;34.58;;;6.60;;
46651;SDS011;32377;52.182;5.398;2023-11-19T14:07:39;43.13;;;6.57;;
46651;SDS011;32377;52.182;5.398;2023-11-19T14:10:06;41.42;;;7.68;;
46651;SDS011;32377;52.182;5.398;2023-11-19T14:12:34;47.95;;;7.78;;
46651;SDS011;32377;52.182;5.398;2023-11-19T14:15:01;46.65;;;7.22;;
46651;SDS011;32377;52.182;5.398;2023-11-19T14:17:26;41.20;;;6.90;;
46651;SDS011;32377;52.182;5.398;2023-11-19T14:19:52;33.65;;;6.05;;
46651;SDS011;32377;52.182;5.398;2023-11-19T14:22:18;41.08;;;6.10;;
46651;SDS011;32377;52.182;5.398;2023-11-19T14:24:44;49.58;;;8.05;;
46651;SDS011;32377;52.182;5.398;2023-11-19T14:27:09;39.15;;;6.13;;
46651;SDS011;32377;52.182;5.398;2023-11-19T14:29:35;34.38;;;5.90;;
46651;SDS011;32377;52.182;5.398;2023-11-19T14:32:02;36.25;;;6.55;;
46651;SDS011;32377;52.182;5.398;2023-11-19T14:34:31;34.78;;;6.97;;
46651;SDS011;32377;52.182;5.398;2023-11-19T14:36:57;40.35;;;6.85;;
46651;SDS011;32377;52.182;5.398;2023-11-19T14:39:23;27.05;;;5.18;;
46651;SDS011;32377;52.182;5.398;2023-11-19T14:41:49;34.67;;;6.30;;
46651;SDS011;32377;52.182;5.398;2023-11-19T14:44:16;42.00;;;6.35;;
46651;SDS011;32377;52.182;5.398;2023-11-19T14:46:41;40.75;;;6.72;;
46651;SDS011;32377;52.182;5.398;2023-11-19T14:49:07;43.47;;;6.88;;
46651;SDS011;32377;52.182;5.398;2023-11-19T14:51:39;47.45;;;6.38;;
46651;SDS011;32377;52.182;5.398;2023-11-19T14:54:05;40.40;;;6.53;;
46651;SDS011;32377;52.182;5.398;2023-11-19T14:56:30;33.97;;;5.57;;
46651;SDS011;32377;52.182;5.398;2023-11-19T14:58:56;42.30;;;7.38;;
46651;SDS011;32377;52.182;5.398;2023-11-19T15:01:23;33.78;;;6.60;;